Air Navigation Services of Czech Republic
Airport: LKMT Updated:  28.10.2020 05:08:25  UTC
 METAR LKMT 28.10. 05:00 ...
METAR LKMT 280500Z 20004KT 8000 -RA OVC016 09/08 Q1015 TEMPO 4000 DZ RMK REG QNH 1009=
 TAF LKMT 28.10. 05:00 ...
TAF LKMT 280500Z 2806/2912 24008KT 9999 BKN030      TEMPO 2806/2808 -RA BKN012      PROB30 TEMPO 2806/2807 4000 BR BKN006      TEMPO 2811/2816 24014G24KT      BECMG 2811/2814 CAVOK      BECMG 2904/2907 BKN030      TEMPO 2907/2912 23014G28KT -RA      PROB30 TEMPO 2910/2912 6000 RA BKN014=